sensor_id;sensor_type;location;lat;lon;timestamp;temperature;humidity
66920;DHT22;53831;52.090;17.026;2022-12-18T00:00:00;-4.20;99.90
66920;DHT22;53831;52.090;17.026;2022-12-18T00:01:04;-4.20;99.90
66920;DHT22;53831;52.090;17.026;2022-12-18T00:02:06;-4.20;99.90
66920;DHT22;53831;52.090;17.026;2022-12-18T00:03:07;-4.20;99.90
66920;DHT22;53831;52.090;17.026;2022-12-18T00:04:18;-4.30;99.90
66920;DHT22;53831;52.090;17.026;2022-12-18T00:05:20;-4.30;99.90
66920;DHT22;53831;52.090;17.026;2022-12-18T00:06:21;-4.30;99.90
66920;DHT22;53831;52.090;17.026;2022-12-18T00:07:22;-4.30;99.90
66920;DHT22;53831;52.090;17.026;2022-12-18T00:08:23;-4.30;99.90
66920;DHT22;53831;52.090;17.026;2022-12-18T00:09:24;-4.30;99.90
66920;DHT22;53831;52.090;17.026;2022-12-18T00:10:24;-4.30;99.90
66920;DHT22;53831;52.090;17.026;2022-12-18T00:11:27;-4.30;99.90
66920;DHT22;53831;52.090;17.026;2022-12-18T00:12:28;-4.20;99.90
66920;DHT22;53831;52.090;17.026;2022-12-18T00:13:29;-4.20;99.90
66920;DHT22;53831;52.090;17.026;2022-12-18T00:14:29;-4.20;99.90
66920;DHT22;53831;52.090;17.026;2022-12-18T00:15:30;-4.20;99.90
66920;DHT22;53831;52.090;17.026;2022-12-18T00:16:33;-4.30;99.90
66920;DHT22;53831;52.090;17.026;2022-12-18T00:17:35;-4.30;99.90
66920;DHT22;53831;52.090;17.026;2022-12-18T00:18:36;-4.30;99.90
66920;DHT22;53831;52.090;17.026;2022-12-18T00:19:37;-4.30;99.90
66920;DHT22;53831;52.090;17.026;2022-12-18T00:20:39;-4.30;99.90
66920;DHT22;53831;52.090;17.026;2022-12-18T00:21:40;-4.40;99.90
66920;DHT22;53831;52.090;17.026;2022-12-18T00:22:41;-4.30;99.90
66920;DHT22;53831;52.090;17.026;2022-12-18T00:23:43;-4.30;99.90
66920;DHT22;53831;52.090;17.026;2022-12-18T00:24:44;-4.30;99.90
66920;DHT22;53831;52.090;17.026;2022-12-18T00:25:44;-4.30;99.90
66920;DHT22;53831;52.090;17.026;2022-12-18T00:26:45;-4.30;99.90
66920;DHT22;53831;52.090;17.026;2022-12-18T00:27:46;-4.30;99.90
66920;DHT22;53831;52.090;17.026;2022-12-18T00:28:48;-4.30;99.90
66920;DHT22;53831;52.090;17.026;2022-12-18T00:29:49;-4.30;99.90
66920;DHT22;53831;52.090;17.026;2022-12-18T00:30:50;-4.30;99.90
66920;DHT22;53831;52.090;17.026;2022-12-18T00:31:51;-4.30;99.90
66920;DHT22;53831;52.090;17.026;2022-12-18T00:32:52;-4.40;99.90
66920;DHT22;53831;52.090;17.026;2022-12-18T00:33:56;-4.40;99.90
66920;DHT22;53831;52.090;17.026;2022-12-18T00:34:57;-4.40;99.90
66920;DHT22;53831;52.090;17.026;2022-12-18T00:36:05;-4.40;99.90
66920;DHT22;53831;52.090;17.026;2022-12-18T00:37:06;-4.40;99.90
66920;DHT22;53831;52.090;17.026;2022-12-18T00:38:07;-4.40;99.90
66920;DHT22;53831;52.090;17.026;2022-12-18T00:39:08;-4.40;99.90
66920;DHT22;53831;52.090;17.026;2022-12-18T00:40:10;-4.50;99.90
66920;DHT22;53831;52.090;17.026;2022-12-18T00:41:12;-4.50;99.90
66920;DHT22;53831;52.090;17.026;2022-12-18T00:42:13;-4.50;99.90
66920;DHT22;53831;52.090;17.026;2022-12-18T00:43:36;-4.50;99.90
66920;DHT22;53831;52.090;17.026;2022-12-18T00:44:37;-4.60;99.90
66920;DHT22;53831;52.090;17.026;2022-12-18T00:45:38;-4.60;99.90
66920;DHT22;53831;52.090;17.026;2022-12-18T00:46:39;-4.60;99.90
66920;DHT22;53831;52.090;17.026;2022-12-18T00:47:39;-4.60;99.90
66920;DHT22;53831;52.090;17.026;2022-12-18T00:48:40;-4.60;99.90
66920;DHT22;53831;52.090;17.026;2022-12-18T00:49:41;-4.60;99.90
66920;DHT22;53831;52.090;17.026;2022-12-18T00:50:41;-4.60;99.90
66920;DHT22;53831;52.090;17.026;2022-12-18T00:51:42;-4.60;99.90
66920;DHT22;53831;52.090;17.026;2022-12-18T00:52:43;-4.60;99.90
66920;DHT22;53831;52.090;17.026;2022-12-18T00:53:43;-4.60;99.90
66920;DHT22;53831;52.090;17.026;2022-12-18T00:54:44;-4.60;99.90
66920;DHT22;53831;52.090;17.026;2022-12-18T00:55:45;-4.60;99.90
66920;DHT22;53831;52.090;17.026;2022-12-18T00:56:46;-4.60;99.90
66920;DHT22;53831;52.090;17.026;2022-12-18T00:57:46;-4.60;99.90
66920;DHT22;53831;52.090;17.026;2022-12-18T00:58:47;-4.60;99.90
66920;DHT22;53831;52.090;17.026;2022-12-18T00:59:48;-4.70;99.90
66920;DHT22;53831;52.090;17.026;2022-12-18T01:00:49;-4.60;99.90
66920;DHT22;53831;52.090;17.026;2022-12-18T01:01:49;-4.60;99.90
66920;DHT22;53831;52.090;17.026;2022-12-18T01:02:50;-4.60;99.90
66920;DHT22;53831;52.090;17.026;2022-12-18T01:03:51;-4.60;99.90
66920;DHT22;53831;52.090;17.026;2022-12-18T01:04:51;-4.60;99.90
66920;DHT22;53831;52.090;17.026;2022-12-18T01:05:53;-4.60;99.90
66920;DHT22;53831;52.090;17.026;2022-12-18T01:06:54;-4.60;99.90
66920;DHT22;53831;52.090;17.026;2022-12-18T01:07:55;-4.60;99.90
66920;DHT22;53831;52.090;17.026;2022-12-18T01:08:56;-4.60;99.90
66920;DHT22;53831;52.090;17.026;2022-12-18T01:09:57;-4.60;99.90
66920;DHT22;53831;52.090;17.026;2022-12-18T01:10:57;-4.60;99.90
66920;DHT22;53831;52.090;17.026;2022-12-18T01:11:59;-4.60;99.90
66920;DHT22;53831;52.090;17.026;2022-12-18T01:13:00;-4.70;99.90
66920;DHT22;53831;52.090;17.026;2022-12-18T01:14:00;-4.70;99.90
66920;DHT22;53831;52.090;17.026;2022-12-18T01:15:01;-4.70;99.90
66920;DHT22;53831;52.090;17.026;2022-12-18T01:16:02;-4.60;99.90
66920;DHT22;53831;52.090;17.026;2022-12-18T01:17:03;-4.60;99.90
66920;DHT22;53831;52.090;17.026;2022-12-18T01:18:07;-4.60;99.90
66920;DHT22;53831;52.090;17.026;2022-12-18T01:19:07;-4.60;99.90
66920;DHT22;53831;52.090;17.026;2022-12-18T01:20:09;-4.60;99.90
66920;DHT22;53831;52.090;17.026;2022-12-18T01:21:15;-4.60;99.90
66920;DHT22;53831;52.090;17.026;2022-12-18T01:22:16;-4.60;99.90
66920;DHT22;53831;52.090;17.026;2022-12-18T01:23:18;-4.60;99.90
66920;DHT22;53831;52.090;17.026;2022-12-18T01:24:19;-4.60;99.90
66920;DHT22;53831;52.090;17.026;2022-12-18T01:25:20;-4.60;99.90
66920;DHT22;53831;52.090;17.026;2022-12-18T01:26:21;-4.50;99.90
66920;DHT22;53831;52.090;17.026;2022-12-18T01:27:21;-4.60;99.90
66920;DHT22;53831;52.090;17.026;2022-12-18T01:28:22;-4.60;99.90
66920;DHT22;53831;52.090;17.026;2022-12-18T01:29:23;-4.60;99.90
66920;DHT22;53831;52.090;17.026;2022-12-18T01:30:23;-4.60;99.90
66920;DHT22;53831;52.090;17.026;2022-12-18T01:31:29;-4.70;99.90
66920;DHT22;53831;52.090;17.026;2022-12-18T01:32:31;-4.60;99.90
66920;DHT22;53831;52.090;17.026;2022-12-18T01:33:31;-4.60;99.90
66920;DHT22;53831;52.090;17.026;2022-12-18T01:34:32;-4.60;99.90
66920;DHT22;53831;52.090;17.026;2022-12-18T01:35:42;-4.70;99.90
66920;DHT22;53831;52.090;17.026;2022-12-18T01:36:43;-4.70;99.90
66920;DHT22;53831;52.090;17.026;2022-12-18T01:37:44;-4.70;99.90
66920;DHT22;53831;52.090;17.026;2022-12-18T01:38:45;-4.70;99.90
66920;DHT22;53831;52.090;17.026;2022-12-18T01:39:45;-4.80;99.90
66920;DHT22;53831;52.090;17.026;2022-12-18T01:40:47;-4.80;99.90
66920;DHT22;53831;52.090;17.026;2022-12-18T01:41:48;-4.80;99.90
66920;DHT22;53831;52.090;17.026;2022-12-18T01:43:04;-4.80;99.90
66920;DHT22;53831;52.090;17.026;2022-12-18T01:45:44;-4.80;99.90
66920;DHT22;53831;52.090;17.026;2022-12-18T01:46:44;-4.80;99.90
66920;DHT22;53831;52.090;17.026;2022-12-18T01:47:54;-4.80;99.90
66920;DHT22;53831;52.090;17.026;2022-12-18T01:49:00;-4.80;99.90
66920;DHT22;53831;52.090;17.026;2022-12-18T01:50:16;-4.80;99.90
66920;DHT22;53831;52.090;17.026;2022-12-18T01:51:17;-4.80;99.90
66920;DHT22;53831;52.090;17.026;2022-12-18T01:52:18;-4.80;99.90
66920;DHT22;53831;52.090;17.026;2022-12-18T01:53:22;-4.80;99.90
66920;DHT22;53831;52.090;17.026;2022-12-18T01:54:23;-4.80;99.90
66920;DHT22;53831;52.090;17.026;2022-12-18T01:55:35;-4.80;99.90
66920;DHT22;53831;52.090;17.026;2022-12-18T01:56:36;-4.80;99.90
66920;DHT22;53831;52.090;17.026;2022-12-18T01:57:38;-4.80;99.90
66920;DHT22;53831;52.090;17.026;2022-12-18T01:59:43;-4.80;99.90
66920;DHT22;53831;52.090;17.026;2022-12-18T02:00:44;-4.80;99.90
66920;DHT22;53831;52.090;17.026;2022-12-18T02:01:45;-4.80;99.90
66920;DHT22;53831;52.090;17.026;2022-12-18T02:02:47;-4.80;99.90
66920;DHT22;53831;52.090;17.026;2022-12-18T02:03:47;-4.90;99.90
66920;DHT22;53831;52.090;17.026;2022-12-18T02:04:49;-4.90;99.90
66920;DHT22;53831;52.090;17.026;2022-12-18T02:07:20;-4.90;99.90
66920;DHT22;53831;52.090;17.026;2022-12-18T02:09:47;-4.80;99.90
66920;DHT22;53831;52.090;17.026;2022-12-18T02:11:13;-4.80;99.90
66920;DHT22;53831;52.090;17.026;2022-12-18T02:12:21;-4.80;99.90
66920;DHT22;53831;52.090;17.026;2022-12-18T02:13:36;-4.80;99.90
66920;DHT22;53831;52.090;17.026;2022-12-18T02:14:45;-4.80;99.90
66920;DHT22;53831;52.090;17.026;2022-12-18T02:17:56;-4.80;99.90
66920;DHT22;53831;52.090;17.026;2022-12-18T02:19:00;-4.90;99.90
66920;DHT22;53831;52.090;17.026;2022-12-18T02:20:25;-5.00;99.90
66920;DHT22;53831;52.090;17.026;2022-12-18T02:26:41;-4.80;99.90
66920;DHT22;53831;52.090;17.026;2022-12-18T02:27:46;-4.80;99.90
66920;DHT22;53831;52.090;17.026;2022-12-18T02:29:01;-4.90;99.90
66920;DHT22;53831;52.090;17.026;2022-12-18T02:30:06;-4.90;99.90
66920;DHT22;53831;52.090;17.026;2022-12-18T02:31:11;-4.90;99.90
66920;DHT22;53831;52.090;17.026;2022-12-18T02:32:21;-4.90;99.90
66920;DHT22;53831;52.090;17.026;2022-12-18T02:33:27;-4.90;99.90
66920;DHT22;53831;52.090;17.026;2022-12-18T02:34:32;-4.90;99.90
66920;DHT22;53831;52.090;17.026;2022-12-18T02:35:35;-4.90;99.90
66920;DHT22;53831;52.090;17.026;2022-12-18T02:36:39;-4.90;99.90
66920;DHT22;53831;52.090;17.026;2022-12-18T02:37:42;-4.80;99.90
66920;DHT22;53831;52.090;17.026;2022-12-18T02:38:45;-4.90;99.90
66920;DHT22;53831;52.090;17.026;2022-12-18T02:39:49;-4.90;99.90
66920;DHT22;53831;52.090;17.026;2022-12-18T02:40:53;-4.90;99.90
66920;DHT22;53831;52.090;17.026;2022-12-18T02:41:54;-4.90;99.90
66920;DHT22;53831;52.090;17.026;2022-12-18T02:43:12;-5.00;99.90
66920;DHT22;53831;52.090;17.026;2022-12-18T02:44:14;-5.00;99.90
66920;DHT22;53831;52.090;17.026;2022-12-18T02:45:15;-5.00;99.90
66920;DHT22;53831;52.090;17.026;2022-12-18T02:46:30;-5.10;99.90
66920;DHT22;53831;52.090;17.026;2022-12-18T02:47:35;-5.10;99.90
66920;DHT22;53831;52.090;17.026;2022-12-18T02:48:37;-5.10;99.90
66920;DHT22;53831;52.090;17.026;2022-12-18T02:51:11;-5.20;99.90
66920;DHT22;53831;52.090;17.026;2022-12-18T02:52:40;-5.20;99.90
66920;DHT22;53831;52.090;17.026;2022-12-18T02:53:49;-5.30;99.90
66920;DHT22;53831;52.090;17.026;2022-12-18T02:56:14;-5.40;99.90
66920;DHT22;53831;52.090;17.026;2022-12-18T02:57:35;-5.40;99.90
66920;DHT22;53831;52.090;17.026;2022-12-18T02:58:47;-5.40;99.90
66920;DHT22;53831;52.090;17.026;2022-12-18T03:00:19;-5.40;99.90
66920;DHT22;53831;52.090;17.026;2022-12-18T03:02:22;-5.40;99.90
66920;DHT22;53831;52.090;17.026;2022-12-18T03:02:55;-5.40;99.90
66920;DHT22;53831;52.090;17.026;2022-12-18T03:04:02;-5.40;99.90
66920;DHT22;53831;52.090;17.026;2022-12-18T03:06:14;-5.40;99.90
66920;DHT22;53831;52.090;17.026;2022-12-18T03:07:26;-5.40;99.90
66920;DHT22;53831;52.090;17.026;2022-12-18T03:08:33;-5.40;99.90
66920;DHT22;53831;52.090;17.026;2022-12-18T03:09:38;-5.40;99.90
66920;DHT22;53831;52.090;17.026;2022-12-18T03:10:45;-5.40;99.90
66920;DHT22;53831;52.090;17.026;2022-12-18T03:11:57;-5.40;99.90
66920;DHT22;53831;52.090;17.026;2022-12-18T03:13:28;-5.40;99.90
66920;DHT22;53831;52.090;17.026;2022-12-18T03:14:34;-5.40;99.90
66920;DHT22;53831;52.090;17.026;2022-12-18T03:15:49;-5.40;99.90
66920;DHT22;53831;52.090;17.026;2022-12-18T03:16:53;-5.30;99.90
66920;DHT22;53831;52.090;17.026;2022-12-18T03:18:02;-5.40;99.90
66920;DHT22;53831;52.090;17.026;2022-12-18T03:19:10;-5.40;99.90
66920;DHT22;53831;52.090;17.026;2022-12-18T03:20:19;-5.40;99.90
66920;DHT22;53831;52.090;17.026;2022-12-18T03:21:26;-5.50;99.90
66920;DHT22;53831;52.090;17.026;2022-12-18T03:22:30;-5.50;99.90
66920;DHT22;53831;52.090;17.026;2022-12-18T03:23:35;-5.50;99.90
66920;DHT22;53831;52.090;17.026;2022-12-18T03:24:37;-5.40;99.90
66920;DHT22;53831;52.090;17.026;2022-12-18T03:25:43;-5.50;99.90
66920;DHT22;53831;52.090;17.026;2022-12-18T03:26:47;-5.50;99.90
66920;DHT22;53831;52.090;17.026;2022-12-18T03:27:52;-5.60;99.90
66920;DHT22;53831;52.090;17.026;2022-12-18T03:29:03;-5.60;99.90
66920;DHT22;53831;52.090;17.026;2022-12-18T03:30:08;-5.60;99.90
66920;DHT22;53831;52.090;17.026;2022-12-18T03:31:13;-5.60;99.90
66920;DHT22;53831;52.090;17.026;2022-12-18T03:32:23;-5.60;99.90
66920;DHT22;53831;52.090;17.026;2022-12-18T03:33:34;-5.60;99.90
66920;DHT22;53831;52.090;17.026;2022-12-18T03:34:40;-5.60;99.90
66920;DHT22;53831;52.090;17.026;2022-12-18T03:35:46;-5.60;99.90
66920;DHT22;53831;52.090;17.026;2022-12-18T03:36:47;-5.60;99.90
66920;DHT22;53831;52.090;17.026;2022-12-18T03:37:49;-5.60;99.90
66920;DHT22;53831;52.090;17.026;2022-12-18T03:38:50;-5.60;99.90
66920;DHT22;53831;52.090;17.026;2022-12-18T03:39:51;-5.60;99.90
66920;DHT22;53831;52.090;17.026;2022-12-18T03:41:17;-5.60;99.90
66920;DHT22;53831;52.090;17.026;2022-12-18T03:42:51;-5.60;99.90
66920;DHT22;53831;52.090;17.026;2022-12-18T03:47:57;-5.60;99.90
66920;DHT22;53831;52.090;17.026;2022-12-18T03:49:08;-5.60;99.90
66920;DHT22;53831;52.090;17.026;2022-12-18T03:50:20;-5.70;99.90
66920;DHT22;53831;52.090;17.026;2022-12-18T03:54:13;-5.60;99.90
66920;DHT22;53831;52.090;17.026;2022-12-18T03:55:24;-5.60;99.90
66920;DHT22;53831;52.090;17.026;2022-12-18T03:56:38;-5.60;99.90
66920;DHT22;53831;52.090;17.026;2022-12-18T03:57:45;-5.60;99.90
66920;DHT22;53831;52.090;17.026;2022-12-18T03:58:48;-5.60;99.90
66920;DHT22;53831;52.090;17.026;2022-12-18T03:59:56;-5.60;99.90
66920;DHT22;53831;52.090;17.026;2022-12-18T04:01:03;-5.70;99.90
66920;DHT22;53831;52.090;17.026;2022-12-18T04:02:06;-5.70;99.90
66920;DHT22;53831;52.090;17.026;2022-12-18T04:03:09;-5.60;99.90
66920;DHT22;53831;52.090;17.026;2022-12-18T04:04:18;-5.70;99.90
66920;DHT22;53831;52.090;17.026;2022-12-18T04:05:20;-5.70;99.90
66920;DHT22;53831;52.090;17.026;2022-12-18T04:06:21;-5.70;99.90
66920;DHT22;53831;52.090;17.026;2022-12-18T04:07:23;-5.80;99.90
66920;DHT22;53831;52.090;17.026;2022-12-18T04:08:24;-5.70;99.90
66920;DHT22;53831;52.090;17.026;2022-12-18T04:09:38;-5.70;99.90
66920;DHT22;53831;52.090;17.026;2022-12-18T04:10:39;-5.70;99.90
66920;DHT22;53831;52.090;17.026;2022-12-18T04:11:41;-5.70;99.90
66920;DHT22;53831;52.090;17.026;2022-12-18T04:12:45;-5.60;99.90
66920;DHT22;53831;52.090;17.026;2022-12-18T04:13:47;-5.70;99.90
66920;DHT22;53831;52.090;17.026;2022-12-18T04:14:55;-5.70;99.90
66920;DHT22;53831;52.090;17.026;2022-12-18T04:15:56;-5.60;99.90
66920;DHT22;53831;52.090;17.026;2022-12-18T04:16:58;-5.60;99.90
66920;DHT22;53831;52.090;17.026;2022-12-18T04:18:04;-5.60;99.90
66920;DHT22;53831;52.090;17.026;2022-12-18T04:19:11;-5.60;99.90
66920;DHT22;53831;52.090;17.026;2022-12-18T04:20:16;-5.60;99.90
66920;DHT22;53831;52.090;17.026;2022-12-18T04:21:18;-5.60;99.90
66920;DHT22;53831;52.090;17.026;2022-12-18T04:22:20;-5.60;99.90
66920;DHT22;53831;52.090;17.026;2022-12-18T04:23:26;-5.50;99.90
66920;DHT22;53831;52.090;17.026;2022-12-18T04:24:30;-5.50;99.90
66920;DHT22;53831;52.090;17.026;2022-12-18T04:25:43;-5.60;99.90
66920;DHT22;53831;52.090;17.026;2022-12-18T04:26:49;-5.60;99.90
66920;DHT22;53831;52.090;17.026;2022-12-18T04:27:52;-5.60;99.90
66920;DHT22;53831;52.090;17.026;2022-12-18T04:28:53;-5.50;99.90
66920;DHT22;53831;52.090;17.026;2022-12-18T04:29:53;-5.50;99.90
66920;DHT22;53831;52.090;17.026;2022-12-18T04:30:54;-5.50;99.90
66920;DHT22;53831;52.090;17.026;2022-12-18T04:31:56;-5.50;99.90
66920;DHT22;53831;52.090;17.026;2022-12-18T04:32:57;-5.50;99.90
66920;DHT22;53831;52.090;17.026;2022-12-18T04:33:58;-5.40;99.90
66920;DHT22;53831;52.090;17.026;2022-12-18T04:34:59;-5.50;99.90
66920;DHT22;53831;52.090;17.026;2022-12-18T04:36:00;-5.50;99.90
66920;DHT22;53831;52.090;17.026;2022-12-18T04:37:00;-5.50;99.90
66920;DHT22;53831;52.090;17.026;2022-12-18T04:38:01;-5.50;99.90
66920;DHT22;53831;52.090;17.026;2022-12-18T04:39:02;-5.40;99.90
66920;DHT22;53831;52.090;17.026;2022-12-18T04:40:03;-5.40;99.90
66920;DHT22;53831;52.090;17.026;2022-12-18T04:41:14;-5.30;99.90
66920;DHT22;53831;52.090;17.026;2022-12-18T04:42:17;-5.30;99.90
66920;DHT22;53831;52.090;17.026;2022-12-18T04:43:17;-5.20;99.90
66920;DHT22;53831;52.090;17.026;2022-12-18T04:44:18;-5.10;99.90
66920;DHT22;53831;52.090;17.026;2022-12-18T04:45:18;-5.10;99.90
66920;DHT22;53831;52.090;17.026;2022-12-18T04:46:19;-5.10;99.90
66920;DHT22;53831;52.090;17.026;2022-12-18T04:47:20;-5.00;99.90
66920;DHT22;53831;52.090;17.026;2022-12-18T04:48:20;-5.00;99.90
66920;DHT22;53831;52.090;17.026;2022-12-18T04:49:21;-4.90;99.90
66920;DHT22;53831;52.090;17.026;2022-12-18T04:50:22;-4.90;99.90
66920;DHT22;53831;52.090;17.026;2022-12-18T04:51:22;-4.90;99.90
66920;DHT22;53831;52.090;17.026;2022-12-18T04:52:23;-4.90;99.90
66920;DHT22;53831;52.090;17.026;2022-12-18T04:53:24;-4.90;99.90
66920;DHT22;53831;52.090;17.026;2022-12-18T04:54:24;-5.10;99.90
66920;DHT22;53831;52.090;17.026;2022-12-18T04:55:25;-5.10;99.90
66920;DHT22;53831;52.090;17.026;2022-12-18T04:56:26;-5.20;99.90
66920;DHT22;53831;52.090;17.026;2022-12-18T04:57:27;-5.30;99.90
66920;DHT22;53831;52.090;17.026;2022-12-18T04:58:27;-5.30;99.90
66920;DHT22;53831;52.090;17.026;2022-12-18T04:59:28;-5.40;99.90
66920;DHT22;53831;52.090;17.026;2022-12-18T05:00:28;-5.40;99.90
66920;DHT22;53831;52.090;17.026;2022-12-18T05:01:29;-5.40;99.90
66920;DHT22;53831;52.090;17.026;2022-12-18T05:02:30;-5.50;99.90
66920;DHT22;53831;52.090;17.026;2022-12-18T05:03:31;-5.50;99.90
66920;DHT22;53831;52.090;17.026;2022-12-18T05:04:31;-5.50;99.90
66920;DHT22;53831;52.090;17.026;2022-12-18T05:05:34;-5.50;99.90
66920;DHT22;53831;52.090;17.026;2022-12-18T05:06:35;-5.60;99.90
66920;DHT22;53831;52.090;17.026;2022-12-18T05:07:35;-5.60;99.90
66920;DHT22;53831;52.090;17.026;2022-12-18T05:08:36;-5.60;99.90
66920;DHT22;53831;52.090;17.026;2022-12-18T05:09:37;-5.60;99.90
66920;DHT22;53831;52.090;17.026;2022-12-18T05:10:37;-5.60;99.90
66920;DHT22;53831;52.090;17.026;2022-12-18T05:11:38;-5.60;99.90
66920;DHT22;53831;52.090;17.026;2022-12-18T05:12:38;-5.60;99.90
66920;DHT22;53831;52.090;17.026;2022-12-18T05:13:58;-5.70;99.90
66920;DHT22;53831;52.090;17.026;2022-12-18T05:14:58;-5.60;99.90
66920;DHT22;53831;52.090;17.026;2022-12-18T05:15:59;-5.60;99.90
66920;DHT22;53831;52.090;17.026;2022-12-18T05:17:00;-5.50;99.90
66920;DHT22;53831;52.090;17.026;2022-12-18T05:18:01;-5.60;99.90
66920;DHT22;53831;52.090;17.026;2022-12-18T05:19:02;-5.60;99.90
66920;DHT22;53831;52.090;17.026;2022-12-18T05:20:02;-5.60;99.90
66920;DHT22;53831;52.090;17.026;2022-12-18T05:21:03;-5.60;99.90
66920;DHT22;53831;52.090;17.026;2022-12-18T05:22:04;-5.60;99.90
66920;DHT22;53831;52.090;17.026;2022-12-18T05:23:08;-5.60;99.90
66920;DHT22;53831;52.090;17.026;2022-12-18T05:24:08;-5.60;99.90
66920;DHT22;53831;52.090;17.026;2022-12-18T05:25:09;-5.60;99.90
66920;DHT22;53831;52.090;17.026;2022-12-18T05:26:15;-5.50;99.90
66920;DHT22;53831;52.090;17.026;2022-12-18T05:27:16;-5.40;99.90
66920;DHT22;53831;52.090;17.026;2022-12-18T05:28:18;-5.30;99.90
66920;DHT22;53831;52.090;17.026;2022-12-18T05:29:18;-5.30;99.90
66920;DHT22;53831;52.090;17.026;2022-12-18T05:30:19;-5.30;99.90
66920;DHT22;53831;52.090;17.026;2022-12-18T05:31:20;-5.20;99.90
66920;DHT22;53831;52.090;17.026;2022-12-18T05:32:20;-5.20;99.90
66920;DHT22;53831;52.090;17.026;2022-12-18T05:33:23;-5.30;99.90
66920;DHT22;53831;52.090;17.026;2022-12-18T05:34:24;-5.30;99.90
66920;DHT22;53831;52.090;17.026;2022-12-18T05:35:25;-5.30;99.90
66920;DHT22;53831;52.090;17.026;2022-12-18T05:36:25;-5.30;99.90
66920;DHT22;53831;52.090;17.026;2022-12-18T05:37:26;-5.40;99.90
66920;DHT22;53831;52.090;17.026;2022-12-18T05:38:27;-5.40;99.90
66920;DHT22;53831;52.090;17.026;2022-12-18T05:39:29;-5.40;99.90
66920;DHT22;53831;52.090;17.026;2022-12-18T05:40:30;-5.50;99.90
66920;DHT22;53831;52.090;17.026;2022-12-18T05:41:30;-5.50;99.90
66920;DHT22;53831;52.090;17.026;2022-12-18T05:42:31;-5.50;99.90
66920;DHT22;53831;52.090;17.026;2022-12-18T05:43:34;-5.50;99.90
66920;DHT22;53831;52.090;17.026;2022-12-18T05:44:34;-5.60;99.90
66920;DHT22;53831;52.090;17.026;2022-12-18T05:45:39;-5.60;99.90
66920;DHT22;53831;52.090;17.026;2022-12-18T05:46:39;-5.60;99.90
66920;DHT22;53831;52.090;17.026;2022-12-18T05:47:43;-5.60;99.90
66920;DHT22;53831;52.090;17.026;2022-12-18T05:48:44;-5.50;99.90
66920;DHT22;53831;52.090;17.026;2022-12-18T05:49:45;-5.60;99.90
66920;DHT22;53831;52.090;17.026;2022-12-18T05:50:47;-5.50;99.90
66920;DHT22;53831;52.090;17.026;2022-12-18T05:51:48;-5.50;99.90
66920;DHT22;53831;52.090;17.026;2022-12-18T05:52:48;-5.40;99.90
66920;DHT22;53831;52.090;17.026;2022-12-18T05:53:49;-5.50;99.90
66920;DHT22;53831;52.090;17.026;2022-12-18T05:54:50;-5.50;99.90
66920;DHT22;53831;52.090;17.026;2022-12-18T05:55:50;-5.50;99.90
66920;DHT22;53831;52.090;17.026;2022-12-18T05:56:51;-5.50;99.90
66920;DHT22;53831;52.090;17.026;2022-12-18T05:57:51;-5.50;99.90
66920;DHT22;53831;52.090;17.026;2022-12-18T05:58:53;-5.40;99.90
66920;DHT22;53831;52.090;17.026;2022-12-18T05:59:54;-5.40;99.90
66920;DHT22;53831;52.090;17.026;2022-12-18T06:00:55;-5.40;99.90
66920;DHT22;53831;52.090;17.026;2022-12-18T06:01:56;-5.40;99.90
66920;DHT22;53831;52.090;17.026;2022-12-18T06:02:56;-5.40;99.90
66920;DHT22;53831;52.090;17.026;2022-12-18T06:03:57;-5.40;99.90
66920;DHT22;53831;52.090;17.026;2022-12-18T06:04:57;-5.50;99.90
66920;DHT22;53831;52.090;17.026;2022-12-18T06:05:58;-5.40;99.90
66920;DHT22;53831;52.090;17.026;2022-12-18T06:06:59;-5.40;99.90
66920;DHT22;53831;52.090;17.026;2022-12-18T06:07:59;-5.40;99.90
66920;DHT22;53831;52.090;17.026;2022-12-18T06:09:00;-5.40;99.90
66920;DHT22;53831;52.090;17.026;2022-12-18T06:10:01;-5.40;99.90
66920;DHT22;53831;52.090;17.026;2022-12-18T06:11:02;-5.50;99.90
66920;DHT22;53831;52.090;17.026;2022-12-18T06:12:03;-5.50;99.90
66920;DHT22;53831;52.090;17.026;2022-12-18T06:13:04;-5.40;99.90
66920;DHT22;53831;52.090;17.026;2022-12-18T06:14:06;-5.40;99.90
66920;DHT22;53831;52.090;17.026;2022-12-18T06:15:07;-5.40;99.90
66920;DHT22;53831;52.090;17.026;2022-12-18T06:16:08;-5.40;99.90
66920;DHT22;53831;52.090;17.026;2022-12-18T06:17:08;-5.40;99.90
66920;DHT22;53831;52.090;17.026;2022-12-18T06:18:09;-5.40;99.90
66920;DHT22;53831;52.090;17.026;2022-12-18T06:19:14;-5.40;99.90
66920;DHT22;53831;52.090;17.026;2022-12-18T06:20:15;-5.30;99.90
66920;DHT22;53831;52.090;17.026;2022-12-18T06:21:16;-5.30;99.90
66920;DHT22;53831;52.090;17.026;2022-12-18T06:22:16;-5.30;99.90
66920;DHT22;53831;52.090;17.026;2022-12-18T06:23:17;-5.30;99.90
66920;DHT22;53831;52.090;17.026;2022-12-18T06:24:17;-5.20;99.90
66920;DHT22;53831;52.090;17.026;2022-12-18T06:25:18;-5.20;99.90
66920;DHT22;53831;52.090;17.026;2022-12-18T06:26:19;-5.20;99.90
66920;DHT22;53831;52.090;17.026;2022-12-18T06:27:20;-5.20;99.90
66920;DHT22;53831;52.090;17.026;2022-12-18T06:28:20;-5.20;99.90
66920;DHT22;53831;52.090;17.026;2022-12-18T06:29:21;-5.20;99.90
66920;DHT22;53831;52.090;17.026;2022-12-18T06:30:22;-5.20;99.90
66920;DHT22;53831;52.090;17.026;2022-12-18T06:31:23;-5.20;99.90
66920;DHT22;53831;52.090;17.026;2022-12-18T06:32:23;-5.20;99.90
66920;DHT22;53831;52.090;17.026;2022-12-18T06:33:26;-5.20;99.90
66920;DHT22;53831;52.090;17.026;2022-12-18T06:34:28;-5.10;99.90
66920;DHT22;53831;52.090;17.026;2022-12-18T06:35:32;-5.20;99.90
66920;DHT22;53831;52.090;17.026;2022-12-18T06:36:32;-5.10;99.90
66920;DHT22;53831;52.090;17.026;2022-12-18T06:37:33;-5.10;99.90
66920;DHT22;53831;52.090;17.026;2022-12-18T06:38:35;-5.10;99.90
66920;DHT22;53831;52.090;17.026;2022-12-18T06:39:36;-5.00;99.90
66920;DHT22;53831;52.090;17.026;2022-12-18T06:40:37;-5.10;99.90
66920;DHT22;53831;52.090;17.026;2022-12-18T06:41:39;-5.00;99.90
66920;DHT22;53831;52.090;17.026;2022-12-18T06:42:39;-5.10;99.90
66920;DHT22;53831;52.090;17.026;2022-12-18T06:43:40;-5.10;99.90
66920;DHT22;53831;52.090;17.026;2022-12-18T06:44:41;-5.00;99.90
66920;DHT22;53831;52.090;17.026;2022-12-18T06:45:42;-5.00;99.90
66920;DHT22;53831;52.090;17.026;2022-12-18T06:46:42;-5.00;99.90
66920;DHT22;53831;52.090;17.026;2022-12-18T06:47:43;-5.00;99.90
66920;DHT22;53831;52.090;17.026;2022-12-18T06:48:47;-5.00;99.90
66920;DHT22;53831;52.090;17.026;2022-12-18T06:49:49;-4.90;99.90
66920;DHT22;53831;52.090;17.026;2022-12-18T06:50:49;-4.90;99.90
66920;DHT22;53831;52.090;17.026;2022-12-18T06:51:50;-4.90;99.90
66920;DHT22;53831;52.090;17.026;2022-12-18T06:52:50;-4.90;99.90
66920;DHT22;53831;52.090;17.026;2022-12-18T06:53:51;-4.90;99.90
66920;DHT22;53831;52.090;17.026;2022-12-18T06:54:52;-4.80;99.90
66920;DHT22;53831;52.090;17.026;2022-12-18T06:55:52;-4.80;99.90
66920;DHT22;53831;52.090;17.026;2022-12-18T06:56:56;-4.90;99.90